Disclaimer

Please do not use the information listed here in-flight or in-navigation, as they are not provided to us by the airports but are provided by volunteers, so they might be outdated.

Search


Regions


Airport information page

No radio frequency information is available.

Airport informations:
Latitude: 10° 42' 40.32" N
Longitude: 099° 21' 42.14" E
Elevation: 18 feet - 5 meters
Operating hours: N/A
Operating agency: Civil government, landing fees and diplomatic clearance may be required
Timezone: UTC+7
Fuel: N/A

Runway information:
06/24 - 6890 x 148 feet< - >2100 x 45 meters

Recent METARs:
VTSE 170900Z 06008KT 8000 FEW020 BKN100 28/23 Q1009 NOSIG
VTSE 170900Z 06008KT 8000 FEW020 BKN100 28/23 Q1009 NOSIG
VTSE 171000Z 07007KT 8000 FEW020 BKN100 28/24 Q1009 NOSIG

Airport on the map: